Aviation Digital Data Service (ADDS)

Output produced by METARs form (0055 UTC 20 April 2019)
found at http://www.aviationweather.gov/metar/data/
 
METAR text: TFFF 200030Z AUTO 09009KT CAVOK 25/20 Q1016 NOSIG
Conditions at: TFFF (LE LAMENTIN/MART, MQ) observed 0030 UTC 20 April 2019
Temperature: 25.0°C (77°F)
Dewpoint: 20.0°C (68°F) [RH = 74%]
Pressure (altimeter): 30.00 inches Hg (1016.0 mb)
Winds: from the E (90 degrees) at 10 MPH (9 knots; 4.6 m/s)
Visibility: 6 or more miles (10+ km)
Ceiling: ceiling and visibility are OK
Clouds: unknown
Weather: no significant weather observed at this time

METAR text: TFFF 200000Z AUTO 09008KT 9999 FEW029 25/20 Q1016 NOSIG
Conditions at: TFFF (LE LAMENTIN/MART, MQ) observed 0000 UTC 20 April 2019
Temperature: 25.0°C (77°F)
Dewpoint: 20.0°C (68°F) [RH = 74%]
Pressure (altimeter): 30.00 inches Hg (1016.0 mb)
Winds: from the E (90 degrees) at 9 MPH (8 knots; 4.1 m/s)
Visibility: 6 or more miles (10+ km)
Ceiling: at least 12,000 feet AGL
Clouds: few clouds at 2900 feet AGL
Weather: no significant weather observed at this time

METAR text: TFFF 192330Z AUTO 09009KT 9999 FEW028 26/20 Q1015 NOSIG
Conditions at: TFFF (LE LAMENTIN/MART, MQ) observed 2330 UTC 19 April 2019
Temperature: 26.0°C (79°F)
Dewpoint: 20.0°C (68°F) [RH = 70%]
Pressure (altimeter): 29.97 inches Hg (1015.0 mb)
Winds: from the E (90 degrees) at 10 MPH (9 knots; 4.6 m/s)
Visibility: 6 or more miles (10+ km)
Ceiling: at least 12,000 feet AGL
Clouds: few clouds at 2800 feet AGL
Weather: no significant weather observed at this time

METAR text: TFFF 192300Z AUTO 09010KT 060V120 9999 SCT028 SCT042 26/20 Q1015
Conditions at: TFFF (LE LAMENTIN/MART, MQ) observed 2300 UTC 19 April 2019
Temperature: 26.0°C (79°F)
Dewpoint: 20.0°C (68°F) [RH = 70%]
Pressure (altimeter): 29.97 inches Hg (1015.0 mb)
Winds: from the E (90 degrees) at 12 MPH (10 knots; 5.1 m/s)
Visibility: 6 or more miles (10+ km)
Ceiling: at least 12,000 feet AGL
Clouds: scattered clouds at 2800 feet AGL
scattered clouds at 4200 feet AGL
Weather: no significant weather observed at this time

METAR text: TFFF 192230Z AUTO 09011KT 9999 SCT029 SCT035 26/20 Q1015
Conditions at: TFFF (LE LAMENTIN/MART, MQ) observed 2230 UTC 19 April 2019
Temperature: 26.0°C (79°F)
Dewpoint: 20.0°C (68°F) [RH = 70%]
Pressure (altimeter): 29.97 inches Hg (1015.0 mb)
Winds: from the E (90 degrees) at 13 MPH (11 knots; 5.7 m/s)
Visibility: 6 or more miles (10+ km)
Ceiling: at least 12,000 feet AGL
Clouds: scattered clouds at 2900 feet AGL
scattered clouds at 3500 feet AGL
Weather: no significant weather observed at this time

METAR text: TFFF 192200Z AUTO 10013KT 9999 FEW027 26/21 Q1015
Conditions at: TFFF (LE LAMENTIN/MART, MQ) observed 2200 UTC 19 April 2019
Temperature: 26.0°C (79°F)
Dewpoint: 21.0°C (70°F) [RH = 74%]
Pressure (altimeter): 29.97 inches Hg (1015.0 mb)
Winds: from the E (100 degrees) at 15 MPH (13 knots; 6.7 m/s)
Visibility: 6 or more miles (10+ km)
Ceiling: at least 12,000 feet AGL
Clouds: few clouds at 2700 feet AGL
Weather: no significant weather observed at this time

METAR text: TFFF 192130Z AUTO 10015KT 9999 SCT028 27/21 Q1015
Conditions at: TFFF (LE LAMENTIN/MART, MQ) observed 2130 UTC 19 April 2019
Temperature: 27.0°C (81°F)
Dewpoint: 21.0°C (70°F) [RH = 70%]
Pressure (altimeter): 29.97 inches Hg (1015.0 mb)
Winds: from the E (100 degrees) at 17 MPH (15 knots; 7.7 m/s)
Visibility: 6 or more miles (10+ km)
Ceiling: at least 12,000 feet AGL
Clouds: scattered clouds at 2800 feet AGL
Weather: no significant weather observed at this time

METAR text: TFFF 192100Z AUTO 11016KT 9999 BKN029 BKN043 27/21 Q1014
Conditions at: TFFF (LE LAMENTIN/MART, MQ) observed 2100 UTC 19 April 2019
Temperature: 27.0°C (81°F)
Dewpoint: 21.0°C (70°F) [RH = 70%]
Pressure (altimeter): 29.94 inches Hg (1014.0 mb)
Winds: from the ESE (110 degrees) at 18 MPH (16 knots; 8.2 m/s)
Visibility: 6 or more miles (10+ km)
Ceiling: 2900 feet AGL
Clouds: broken clouds at 2900 feet AGL
broken clouds at 4300 feet AGL
Weather: no significant weather observed at this time

METAR text: TFFF 192030Z AUTO 09015KT 9999 SCT028 SCT033 BKN040 28/21 Q1014
Conditions at: TFFF (LE LAMENTIN/MART, MQ) observed 2030 UTC 19 April 2019
Temperature: 28.0°C (82°F)
Dewpoint: 21.0°C (70°F) [RH = 66%]
Pressure (altimeter): 29.94 inches Hg (1014.0 mb)
Winds: from the E (90 degrees) at 17 MPH (15 knots; 7.7 m/s)
Visibility: 6 or more miles (10+ km)
Ceiling: 4000 feet AGL
Clouds: scattered clouds at 2800 feet AGL
scattered clouds at 3300 feet AGL
broken clouds at 4000 feet AGL
Weather: no significant weather observed at this time

METAR text: TFFF 192000Z AUTO 10013KT 9999 SCT030 BKN035 BKN064 27/22 Q1014
Conditions at: TFFF (LE LAMENTIN/MART, MQ) observed 2000 UTC 19 April 2019
Temperature: 27.0°C (81°F)
Dewpoint: 22.0°C (72°F) [RH = 74%]
Pressure (altimeter): 29.94 inches Hg (1014.0 mb)
Winds: from the E (100 degrees) at 15 MPH (13 knots; 6.7 m/s)
Visibility: 6 or more miles (10+ km)
Ceiling: 3500 feet AGL
Clouds: scattered clouds at 3000 feet AGL
broken clouds at 3500 feet AGL
broken clouds at 6400 feet AGL
Weather: no significant weather observed at this time

METAR text: TFFF 191930Z AUTO 12020KT 9999 -RA FEW015 BKN029 BKN039 26/22 Q1014
Conditions at: TFFF (LE LAMENTIN/MART, MQ) observed 1930 UTC 19 April 2019
Temperature: 26.0°C (79°F)
Dewpoint: 22.0°C (72°F) [RH = 79%]
Pressure (altimeter): 29.94 inches Hg (1014.0 mb)
Winds: from the ESE (120 degrees) at 23 MPH (20 knots; 10.3 m/s)
Visibility: 6 or more miles (10+ km)
Ceiling: 2900 feet AGL
Clouds: few clouds at 1500 feet AGL
broken clouds at 2900 feet AGL
broken clouds at 3900 feet AGL
Weather: -RA  (light rain)

METAR text: TFFF 191900Z AUTO 11019KT 9999 SCT031 BKN066 29/22 Q1015
Conditions at: TFFF (LE LAMENTIN/MART, MQ) observed 1900 UTC 19 April 2019
Temperature: 29.0°C (84°F)
Dewpoint: 22.0°C (72°F) [RH = 66%]
Pressure (altimeter): 29.97 inches Hg (1015.0 mb)
Winds: from the ESE (110 degrees) at 22 MPH (19 knots; 9.8 m/s)
Visibility: 6 or more miles (10+ km)
Ceiling: 6600 feet AGL
Clouds: scattered clouds at 3100 feet AGL
broken clouds at 6600 feet AGL
Weather: no significant weather observed at this time

METAR text: TFFF 191830Z AUTO 11019KT 9999 FEW031 SCT040 BKN064 30/22 Q1015
Conditions at: TFFF (LE LAMENTIN/MART, MQ) observed 1830 UTC 19 April 2019
Temperature: 30.0°C (86°F)
Dewpoint: 22.0°C (72°F) [RH = 62%]
Pressure (altimeter): 29.97 inches Hg (1015.0 mb)
Winds: from the ESE (110 degrees) at 22 MPH (19 knots; 9.8 m/s)
Visibility: 6 or more miles (10+ km)
Ceiling: 6400 feet AGL
Clouds: few clouds at 3100 feet AGL
scattered clouds at 4000 feet AGL
broken clouds at 6400 feet AGL
Weather: no significant weather observed at this time

METAR text: TFFF 191800Z AUTO 10017KT 9999 SCT033 BKN060 30/21 Q1015
Conditions at: TFFF (LE LAMENTIN/MART, MQ) observed 1800 UTC 19 April 2019
Temperature: 30.0°C (86°F)
Dewpoint: 21.0°C (70°F) [RH = 59%]
Pressure (altimeter): 29.97 inches Hg (1015.0 mb)
Winds: from the E (100 degrees) at 20 MPH (17 knots; 8.7 m/s)
Visibility: 6 or more miles (10+ km)
Ceiling: 6000 feet AGL
Clouds: scattered clouds at 3300 feet AGL
broken clouds at 6000 feet AGL
Weather: no significant weather observed at this time

METAR text: TFFF 191730Z AUTO 10020KT 9999 FEW034 29/21 Q1015
Conditions at: TFFF (LE LAMENTIN/MART, MQ) observed 1730 UTC 19 April 2019
Temperature: 29.0°C (84°F)
Dewpoint: 21.0°C (70°F) [RH = 62%]
Pressure (altimeter): 29.97 inches Hg (1015.0 mb)
Winds: from the E (100 degrees) at 23 MPH (20 knots; 10.3 m/s)
Visibility: 6 or more miles (10+ km)
Ceiling: at least 12,000 feet AGL
Clouds: few clouds at 3400 feet AGL
Weather: no significant weather observed at this time

METAR text: TFFF 191700Z AUTO 11021KT 9999 FEW032 SCT052 30/22 Q1016
Conditions at: TFFF (LE LAMENTIN/MART, MQ) observed 1700 UTC 19 April 2019
Temperature: 30.0°C (86°F)
Dewpoint: 22.0°C (72°F) [RH = 62%]
Pressure (altimeter): 30.00 inches Hg (1016.0 mb)
Winds: from the ESE (110 degrees) at 24 MPH (21 knots; 10.8 m/s)
Visibility: 6 or more miles (10+ km)
Ceiling: at least 12,000 feet AGL
Clouds: few clouds at 3200 feet AGL
scattered clouds at 5200 feet AGL
Weather: no significant weather observed at this time

METAR text: TFFF 191630Z AUTO 11019KT 9999 BKN029 29/21 Q1016
Conditions at: TFFF (LE LAMENTIN/MART, MQ) observed 1630 UTC 19 April 2019
Temperature: 29.0°C (84°F)
Dewpoint: 21.0°C (70°F) [RH = 62%]
Pressure (altimeter): 30.00 inches Hg (1016.0 mb)
Winds: from the ESE (110 degrees) at 22 MPH (19 knots; 9.8 m/s)
Visibility: 6 or more miles (10+ km)
Ceiling: 2900 feet AGL
Clouds: broken clouds at 2900 feet AGL
Weather: no significant weather observed at this time

METAR text: TFFF 191600Z AUTO 11017KT 050V120 9999 BKN029 BKN035 BKN042 30/22 Q1017
Conditions at: TFFF (LE LAMENTIN/MART, MQ) observed 1600 UTC 19 April 2019
Temperature: 30.0°C (86°F)
Dewpoint: 22.0°C (72°F) [RH = 62%]
Pressure (altimeter): 30.03 inches Hg (1017.0 mb)
Winds: from the ESE (110 degrees) at 20 MPH (17 knots; 8.7 m/s)
Visibility: 6 or more miles (10+ km)
Ceiling: 2900 feet AGL
Clouds: broken clouds at 2900 feet AGL
broken clouds at 3500 feet AGL
broken clouds at 4200 feet AGL
Weather: no significant weather observed at this time

METAR text: TFFF 191530Z AUTO 11019KT 9999 SCT032 29/22 Q1017
Conditions at: TFFF (LE LAMENTIN/MART, MQ) observed 1530 UTC 19 April 2019
Temperature: 29.0°C (84°F)
Dewpoint: 22.0°C (72°F) [RH = 66%]
Pressure (altimeter): 30.03 inches Hg (1017.0 mb)
Winds: from the ESE (110 degrees) at 22 MPH (19 knots; 9.8 m/s)
Visibility: 6 or more miles (10+ km)
Ceiling: at least 12,000 feet AGL
Clouds: scattered clouds at 3200 feet AGL
Weather: no significant weather observed at this time

METAR text: TFFF 191500Z AUTO 10016KT 9999 SCT030 BKN036 BKN042 29/21 Q1017
Conditions at: TFFF (LE LAMENTIN/MART, MQ) observed 1500 UTC 19 April 2019
Temperature: 29.0°C (84°F)
Dewpoint: 21.0°C (70°F) [RH = 62%]
Pressure (altimeter): 30.03 inches Hg (1017.0 mb)
Winds: from the E (100 degrees) at 18 MPH (16 knots; 8.2 m/s)
Visibility: 6 or more miles (10+ km)
Ceiling: 3600 feet AGL
Clouds: scattered clouds at 3000 feet AGL
broken clouds at 3600 feet AGL
broken clouds at 4200 feet AGL
Weather: no significant weather observed at this time

METAR text: TFFF 191430Z AUTO 10016KT 9999 BKN030 BKN037 BKN044 28/22 Q1017
Conditions at: TFFF (LE LAMENTIN/MART, MQ) observed 1430 UTC 19 April 2019
Temperature: 28.0°C (82°F)
Dewpoint: 22.0°C (72°F) [RH = 70%]
Pressure (altimeter): 30.03 inches Hg (1017.0 mb)
Winds: from the E (100 degrees) at 18 MPH (16 knots; 8.2 m/s)
Visibility: 6 or more miles (10+ km)
Ceiling: 3000 feet AGL
Clouds: broken clouds at 3000 feet AGL
broken clouds at 3700 feet AGL
broken clouds at 4400 feet AGL
Weather: no significant weather observed at this time

METAR text: TFFF 191400Z AUTO 10017KT 060V120 9999 BKN030 BKN036 BKN048 28/21 Q1017
Conditions at: TFFF (LE LAMENTIN/MART, MQ) observed 1400 UTC 19 April 2019
Temperature: 28.0°C (82°F)
Dewpoint: 21.0°C (70°F) [RH = 66%]
Pressure (altimeter): 30.03 inches Hg (1017.0 mb)
Winds: from the E (100 degrees) at 20 MPH (17 knots; 8.7 m/s)
Visibility: 6 or more miles (10+ km)
Ceiling: 3000 feet AGL
Clouds: broken clouds at 3000 feet AGL
broken clouds at 3600 feet AGL
broken clouds at 4800 feet AGL
Weather: no significant weather observed at this time

METAR text: TFFF 191330Z AUTO 09016KT 9999 BKN031 BKN041 28/21 Q1017
Conditions at: TFFF (LE LAMENTIN/MART, MQ) observed 1330 UTC 19 April 2019
Temperature: 28.0°C (82°F)
Dewpoint: 21.0°C (70°F) [RH = 66%]
Pressure (altimeter): 30.03 inches Hg (1017.0 mb)
Winds: from the E (90 degrees) at 18 MPH (16 knots; 8.2 m/s)
Visibility: 6 or more miles (10+ km)
Ceiling: 3100 feet AGL
Clouds: broken clouds at 3100 feet AGL
broken clouds at 4100 feet AGL
Weather: no significant weather observed at this time

METAR text: TFFF 191300Z AUTO 10016KT 9999 BKN029 OVC035 27/21 Q1017
Conditions at: TFFF (LE LAMENTIN/MART, MQ) observed 1300 UTC 19 April 2019
Temperature: 27.0°C (81°F)
Dewpoint: 21.0°C (70°F) [RH = 70%]
Pressure (altimeter): 30.03 inches Hg (1017.0 mb)
Winds: from the E (100 degrees) at 18 MPH (16 knots; 8.2 m/s)
Visibility: 6 or more miles (10+ km)
Ceiling: 2900 feet AGL
Clouds: broken clouds at 2900 feet AGL
overcast cloud deck at 3500 feet AGL
Weather: no significant weather observed at this time

METAR text: TFFF 191230Z AUTO 10016KT 9999 BKN029 BKN038 28/22 Q1017
Conditions at: TFFF (LE LAMENTIN/MART, MQ) observed 1230 UTC 19 April 2019
Temperature: 28.0°C (82°F)
Dewpoint: 22.0°C (72°F) [RH = 70%]
Pressure (altimeter): 30.03 inches Hg (1017.0 mb)
Winds: from the E (100 degrees) at 18 MPH (16 knots; 8.2 m/s)
Visibility: 6 or more miles (10+ km)
Ceiling: 2900 feet AGL
Clouds: broken clouds at 2900 feet AGL
broken clouds at 3800 feet AGL
Weather: no significant weather observed at this time

METAR text: TFFF 191200Z AUTO 09014KT 9999 BKN028 BKN034 28/22 Q1016
Conditions at: TFFF (LE LAMENTIN/MART, MQ) observed 1200 UTC 19 April 2019
Temperature: 28.0°C (82°F)
Dewpoint: 22.0°C (72°F) [RH = 70%]
Pressure (altimeter): 30.00 inches Hg (1016.0 mb)
Winds: from the E (90 degrees) at 16 MPH (14 knots; 7.2 m/s)
Visibility: 6 or more miles (10+ km)
Ceiling: 2800 feet AGL
Clouds: broken clouds at 2800 feet AGL
broken clouds at 3400 feet AGL
Weather: no significant weather observed at this time

METAR text: TFFF 191130Z AUTO 09011KT 9999 FEW027 26/21 Q1016
Conditions at: TFFF (LE LAMENTIN/MART, MQ) observed 1130 UTC 19 April 2019
Temperature: 26.0°C (79°F)
Dewpoint: 21.0°C (70°F) [RH = 74%]
Pressure (altimeter): 30.00 inches Hg (1016.0 mb)
Winds: from the E (90 degrees) at 13 MPH (11 knots; 5.7 m/s)
Visibility: 6 or more miles (10+ km)
Ceiling: at least 12,000 feet AGL
Clouds: few clouds at 2700 feet AGL
Weather: no significant weather observed at this time

METAR text: TFFF 191100Z AUTO 09008KT CAVOK 26/21 Q1016
Conditions at: TFFF (LE LAMENTIN/MART, MQ) observed 1100 UTC 19 April 2019
Temperature: 26.0°C (79°F)
Dewpoint: 21.0°C (70°F) [RH = 74%]
Pressure (altimeter): 30.00 inches Hg (1016.0 mb)
Winds: from the E (90 degrees) at 9 MPH (8 knots; 4.1 m/s)
Visibility: 6 or more miles (10+ km)
Ceiling: ceiling and visibility are OK
Clouds: unknown
Weather: no significant weather observed at this time

METAR text: TFFF 191030Z AUTO 09009KT 9999 FEW026 25/21 Q1015
Conditions at: TFFF (LE LAMENTIN/MART, MQ) observed 1030 UTC 19 April 2019
Temperature: 25.0°C (77°F)
Dewpoint: 21.0°C (70°F) [RH = 79%]
Pressure (altimeter): 29.97 inches Hg (1015.0 mb)
Winds: from the E (90 degrees) at 10 MPH (9 knots; 4.6 m/s)
Visibility: 6 or more miles (10+ km)
Ceiling: at least 12,000 feet AGL
Clouds: few clouds at 2600 feet AGL
Weather: no significant weather observed at this time

METAR text: TFFF 191000Z AUTO 08004KT 050V120 9999 SCT027 BKN056 24/21 Q1015 TEMPO 4000 SHRA BKN018TCU
Conditions at: TFFF (LE LAMENTIN/MART, MQ) observed 1000 UTC 19 April 2019
Temperature: 24.0°C (75°F)
Dewpoint: 21.0°C (70°F) [RH = 83%]
Pressure (altimeter): 29.97 inches Hg (1015.0 mb)
Winds: from the E (80 degrees) at 5 MPH (4 knots; 2.1 m/s)
Visibility: 6 or more miles (10+ km)
Ceiling: 5600 feet AGL
Clouds: scattered clouds at 2700 feet AGL
broken clouds at 5600 feet AGL
Weather: no significant weather observed at this time

METAR text: TFFF 190930Z AUTO VRB02KT 9999 FEW026 SCT038 24/21 Q1015 TEMPO 4000 SHRA BKN018TCU BECMG 10012KT
Conditions at: TFFF (LE LAMENTIN/MART, MQ) observed 0930 UTC 19 April 2019
Temperature: 24.0°C (75°F)
Dewpoint: 21.0°C (70°F) [RH = 83%]
Pressure (altimeter): 29.97 inches Hg (1015.0 mb)
Winds: variable direction winds at 2 MPH (2 knots; 1.0 m/s)
Visibility: 6 or more miles (10+ km)
Ceiling: at least 12,000 feet AGL
Clouds: few clouds at 2600 feet AGL
scattered clouds at 3800 feet AGL
Weather: no significant weather observed at this time

METAR text: TFFF 190900Z AUTO 08005KT 9999 FEW025 SCT056 BKN068 24/21 Q1014 TEMPO 4000 SHRA BKN018TCU
Conditions at: TFFF (LE LAMENTIN/MART, MQ) observed 0900 UTC 19 April 2019
Temperature: 24.0°C (75°F)
Dewpoint: 21.0°C (70°F) [RH = 83%]
Pressure (altimeter): 29.94 inches Hg (1014.0 mb)
Winds: from the E (80 degrees) at 6 MPH (5 knots; 2.6 m/s)
Visibility: 6 or more miles (10+ km)
Ceiling: 6800 feet AGL
Clouds: few clouds at 2500 feet AGL
scattered clouds at 5600 feet AGL
broken clouds at 6800 feet AGL
Weather: no significant weather observed at this time

METAR text: TFFF 190830Z AUTO 09003KT 9999 FEW028 SCT068 23/21 Q1014 TEMPO 4000 SHRA BKN018TCU
Conditions at: TFFF (LE LAMENTIN/MART, MQ) observed 0830 UTC 19 April 2019
Temperature: 23.0°C (73°F)
Dewpoint: 21.0°C (70°F) [RH = 89%]
Pressure (altimeter): 29.94 inches Hg (1014.0 mb)
Winds: from the E (90 degrees) at 3 MPH (3 knots; 1.5 m/s)
Visibility: 6 or more miles (10+ km)
Ceiling: at least 12,000 feet AGL
Clouds: few clouds at 2800 feet AGL
scattered clouds at 6800 feet AGL
Weather: no significant weather observed at this time

METAR text: TFFF 190800Z AUTO VRB02KT 9999 FEW025/// BKN047/// OVC060/// ///TCU 23/21 Q1014 TEMPO 4000 SHRA BECMG 10012KT
Conditions at: TFFF (LE LAMENTIN/MART, MQ) observed 0800 UTC 19 April 2019
Temperature: 23.0°C (73°F)
Dewpoint: 21.0°C (70°F) [RH = 89%]
Pressure (altimeter): 29.94 inches Hg (1014.0 mb)
Winds: variable direction winds at 2 MPH (2 knots; 1.0 m/s)
Visibility: 6 or more miles (10+ km)
Ceiling: 4700 feet AGL
Clouds: few clouds at 2500 feet AGL
broken clouds at 4700 feet AGL
overcast cloud deck at 6000 feet AGL
Weather: no significant weather observed at this time

METAR text: TFFF 190730Z AUTO 12010KT 9999 RA FEW024 SCT035 BKN042 23/21 Q1014 TEMPO 4000 SHRA BKN018TCU
Conditions at: TFFF (LE LAMENTIN/MART, MQ) observed 0730 UTC 19 April 2019
Temperature: 23.0°C (73°F)
Dewpoint: 21.0°C (70°F) [RH = 89%]
Pressure (altimeter): 29.94 inches Hg (1014.0 mb)
Winds: from the ESE (120 degrees) at 12 MPH (10 knots; 5.1 m/s)
Visibility: 6 or more miles (10+ km)
Ceiling: 4200 feet AGL
Clouds: few clouds at 2400 feet AGL
scattered clouds at 3500 feet AGL
broken clouds at 4200 feet AGL
Weather: RA  (moderate rain)

METAR text: TFFF 190700Z AUTO 11014KT 9999 BKN056 BKN088 BKN100 23/21 Q1014 TEMPO 4000 SHRA BKN018TCU
Conditions at: TFFF (LE LAMENTIN/MART, MQ) observed 0700 UTC 19 April 2019
Temperature: 23.0°C (73°F)
Dewpoint: 21.0°C (70°F) [RH = 89%]
Pressure (altimeter): 29.94 inches Hg (1014.0 mb)
Winds: from the ESE (110 degrees) at 16 MPH (14 knots; 7.2 m/s)
Visibility: 6 or more miles (10+ km)
Ceiling: 5600 feet AGL
Clouds: broken clouds at 5600 feet AGL
broken clouds at 8800 feet AGL
broken clouds at 10000 feet AGL
Weather: no significant weather observed at this time

METAR text: TFFF 190630Z AUTO 11014KT 9999 FEW022/// BKN064/// BKN100/// ///TCU 24/21 Q1014 TEMPO 4000 SHRA
Conditions at: TFFF (LE LAMENTIN/MART, MQ) observed 0630 UTC 19 April 2019
Temperature: 24.0°C (75°F)
Dewpoint: 21.0°C (70°F) [RH = 83%]
Pressure (altimeter): 29.94 inches Hg (1014.0 mb)
Winds: from the ESE (110 degrees) at 16 MPH (14 knots; 7.2 m/s)
Visibility: 6 or more miles (10+ km)
Ceiling: 6400 feet AGL
Clouds: few clouds at 2200 feet AGL
broken clouds at 6400 feet AGL
broken clouds at 10000 feet AGL
Weather: no significant weather observed at this time

METAR text: TFFF 190600Z AUTO 10010KT 9999 BKN025/// BKN034/// OVC040/// ///TCU 25/21 Q1014 BECMG SCT025 SCT040
Conditions at: TFFF (LE LAMENTIN/MART, MQ) observed 0600 UTC 19 April 2019
Temperature: 25.0°C (77°F)
Dewpoint: 21.0°C (70°F) [RH = 79%]
Pressure (altimeter): 29.94 inches Hg (1014.0 mb)
Winds: from the E (100 degrees) at 12 MPH (10 knots; 5.1 m/s)
Visibility: 6 or more miles (10+ km)
Ceiling: 2500 feet AGL
Clouds: broken clouds at 2500 feet AGL
broken clouds at 3400 feet AGL
overcast cloud deck at 4000 feet AGL
Weather: no significant weather observed at this time

METAR text: TFFF 190530Z AUTO 09010KT 9999 FEW025/// SCT052/// ///TCU 25/21 Q1014 BECMG SCT025 SCT040
Conditions at: TFFF (LE LAMENTIN/MART, MQ) observed 0530 UTC 19 April 2019
Temperature: 25.0°C (77°F)
Dewpoint: 21.0°C (70°F) [RH = 79%]
Pressure (altimeter): 29.94 inches Hg (1014.0 mb)
Winds: from the E (90 degrees) at 12 MPH (10 knots; 5.1 m/s)
Visibility: 6 or more miles (10+ km)
Ceiling: at least 12,000 feet AGL
Clouds: few clouds at 2500 feet AGL
scattered clouds at 5200 feet AGL
Weather: no significant weather observed at this time

METAR text: TFFF 190500Z AUTO 09011KT 9999 SCT026 BKN056 BKN076 26/21 Q1015 NOSIG
Conditions at: TFFF (LE LAMENTIN/MART, MQ) observed 0500 UTC 19 April 2019
Temperature: 26.0°C (79°F)
Dewpoint: 21.0°C (70°F) [RH = 74%]
Pressure (altimeter): 29.97 inches Hg (1015.0 mb)
Winds: from the E (90 degrees) at 13 MPH (11 knots; 5.7 m/s)
Visibility: 6 or more miles (10+ km)
Ceiling: 5600 feet AGL
Clouds: scattered clouds at 2600 feet AGL
broken clouds at 5600 feet AGL
broken clouds at 7600 feet AGL
Weather: no significant weather observed at this time

METAR text: TFFF 190430Z AUTO 10011KT 9999 SCT025 SCT044 BKN064 26/21 Q1015 NOSIG
Conditions at: TFFF (LE LAMENTIN/MART, MQ) observed 0430 UTC 19 April 2019
Temperature: 26.0°C (79°F)
Dewpoint: 21.0°C (70°F) [RH = 74%]
Pressure (altimeter): 29.97 inches Hg (1015.0 mb)
Winds: from the E (100 degrees) at 13 MPH (11 knots; 5.7 m/s)
Visibility: 6 or more miles (10+ km)
Ceiling: 6400 feet AGL
Clouds: scattered clouds at 2500 feet AGL
scattered clouds at 4400 feet AGL
broken clouds at 6400 feet AGL
Weather: no significant weather observed at this time

METAR text: TFFF 190400Z AUTO 10012KT 9999 FEW029 SCT048 OVC054 26/21 Q1015 NOSIG
Conditions at: TFFF (LE LAMENTIN/MART, MQ) observed 0400 UTC 19 April 2019
Temperature: 26.0°C (79°F)
Dewpoint: 21.0°C (70°F) [RH = 74%]
Pressure (altimeter): 29.97 inches Hg (1015.0 mb)
Winds: from the E (100 degrees) at 14 MPH (12 knots; 6.2 m/s)
Visibility: 6 or more miles (10+ km)
Ceiling: 5400 feet AGL
Clouds: few clouds at 2900 feet AGL
scattered clouds at 4800 feet AGL
overcast cloud deck at 5400 feet AGL
Weather: no significant weather observed at this time

METAR text: TFFF 190330Z AUTO 10014KT 9999 FEW023 SCT048 OVC062 26/21 Q1016 NOSIG
Conditions at: TFFF (LE LAMENTIN/MART, MQ) observed 0330 UTC 19 April 2019
Temperature: 26.0°C (79°F)
Dewpoint: 21.0°C (70°F) [RH = 74%]
Pressure (altimeter): 30.00 inches Hg (1016.0 mb)
Winds: from the E (100 degrees) at 16 MPH (14 knots; 7.2 m/s)
Visibility: 6 or more miles (10+ km)
Ceiling: 6200 feet AGL
Clouds: few clouds at 2300 feet AGL
scattered clouds at 4800 feet AGL
overcast cloud deck at 6200 feet AGL
Weather: no significant weather observed at this time

METAR text: TFFF 190300Z AUTO 11012KT 9999 FEW030 SCT042 BKN052 26/21 Q1016 NOSIG
Conditions at: TFFF (LE LAMENTIN/MART, MQ) observed 0300 UTC 19 April 2019
Temperature: 26.0°C (79°F)
Dewpoint: 21.0°C (70°F) [RH = 74%]
Pressure (altimeter): 30.00 inches Hg (1016.0 mb)
Winds: from the ESE (110 degrees) at 14 MPH (12 knots; 6.2 m/s)
Visibility: 6 or more miles (10+ km)
Ceiling: 5200 feet AGL
Clouds: few clouds at 3000 feet AGL
scattered clouds at 4200 feet AGL
broken clouds at 5200 feet AGL
Weather: no significant weather observed at this time

METAR text: TFFF 190230Z AUTO 11011KT 070V130 9999 BKN024 BKN064 26/21 Q1016 NOSIG
Conditions at: TFFF (LE LAMENTIN/MART, MQ) observed 0230 UTC 19 April 2019
Temperature: 26.0°C (79°F)
Dewpoint: 21.0°C (70°F) [RH = 74%]
Pressure (altimeter): 30.00 inches Hg (1016.0 mb)
Winds: from the ESE (110 degrees) at 13 MPH (11 knots; 5.7 m/s)
Visibility: 6 or more miles (10+ km)
Ceiling: 2400 feet AGL
Clouds: broken clouds at 2400 feet AGL
broken clouds at 6400 feet AGL
Weather: no significant weather observed at this time

METAR text: TFFF 190200Z AUTO 10010KT 9999 SCT027 BKN052 BKN062 26/21 Q1016 NOSIG
Conditions at: TFFF (LE LAMENTIN/MART, MQ) observed 0200 UTC 19 April 2019
Temperature: 26.0°C (79°F)
Dewpoint: 21.0°C (70°F) [RH = 74%]
Pressure (altimeter): 30.00 inches Hg (1016.0 mb)
Winds: from the E (100 degrees) at 12 MPH (10 knots; 5.1 m/s)
Visibility: 6 or more miles (10+ km)
Ceiling: 5200 feet AGL
Clouds: scattered clouds at 2700 feet AGL
broken clouds at 5200 feet AGL
broken clouds at 6200 feet AGL
Weather: no significant weather observed at this time

METAR text: TFFF 190130Z AUTO 09008KT 9999 FEW025 BKN047 26/21 Q1015 NOSIG
Conditions at: TFFF (LE LAMENTIN/MART, MQ) observed 0130 UTC 19 April 2019
Temperature: 26.0°C (79°F)
Dewpoint: 21.0°C (70°F) [RH = 74%]
Pressure (altimeter): 29.97 inches Hg (1015.0 mb)
Winds: from the E (90 degrees) at 9 MPH (8 knots; 4.1 m/s)
Visibility: 6 or more miles (10+ km)
Ceiling: 4700 feet AGL
Clouds: few clouds at 2500 feet AGL
broken clouds at 4700 feet AGL
Weather: no significant weather observed at this time

METAR text: TFFF 190100Z AUTO 09009KT 9999 FEW040 SCT052 26/21 Q1015 NOSIG
Conditions at: TFFF (LE LAMENTIN/MART, MQ) observed 0100 UTC 19 April 2019
Temperature: 26.0°C (79°F)
Dewpoint: 21.0°C (70°F) [RH = 74%]
Pressure (altimeter): 29.97 inches Hg (1015.0 mb)
Winds: from the E (90 degrees) at 10 MPH (9 knots; 4.6 m/s)
Visibility: 6 or more miles (10+ km)
Ceiling: at least 12,000 feet AGL
Clouds: few clouds at 4000 feet AGL
scattered clouds at 5200 feet AGL
Weather: no significant weather observed at this time

METAR text: TFFF 190030Z AUTO 10010KT 9999 FEW025 SCT060 26/21 Q1015 NOSIG
Conditions at: TFFF (LE LAMENTIN/MART, MQ) observed 0030 UTC 19 April 2019
Temperature: 26.0°C (79°F)
Dewpoint: 21.0°C (70°F) [RH = 74%]
Pressure (altimeter): 29.97 inches Hg (1015.0 mb)
Winds: from the E (100 degrees) at 12 MPH (10 knots; 5.1 m/s)
Visibility: 6 or more miles (10+ km)
Ceiling: at least 12,000 feet AGL
Clouds: few clouds at 2500 feet AGL
scattered clouds at 6000 feet AGL
Weather: no significant weather observed at this time

METAR text: TFFF 190000Z AUTO 09008KT 9999 FEW025 SCT052 26/21 Q1015 NOSIG
Conditions at: TFFF (LE LAMENTIN/MART, MQ) observed 0000 UTC 19 April 2019
Temperature: 26.0°C (79°F)
Dewpoint: 21.0°C (70°F) [RH = 74%]
Pressure (altimeter): 29.97 inches Hg (1015.0 mb)
Winds: from the E (90 degrees) at 9 MPH (8 knots; 4.1 m/s)
Visibility: 6 or more miles (10+ km)
Ceiling: at least 12,000 feet AGL
Clouds: few clouds at 2500 feet AGL
scattered clouds at 5200 feet AGL
Weather: no significant weather observed at this time

METAR text: TFFF 182330Z AUTO 09008KT 9999 FEW024 SCT062 26/21 Q1014 NOSIG
Conditions at: TFFF (LE LAMENTIN/MART, MQ) observed 2330 UTC 18 April 2019
Temperature: 26.0°C (79°F)
Dewpoint: 21.0°C (70°F) [RH = 74%]
Pressure (altimeter): 29.94 inches Hg (1014.0 mb)
Winds: from the E (90 degrees) at 9 MPH (8 knots; 4.1 m/s)
Visibility: 6 or more miles (10+ km)
Ceiling: at least 12,000 feet AGL
Clouds: few clouds at 2400 feet AGL
scattered clouds at 6200 feet AGL
Weather: no significant weather observed at this time

METAR text: TFFF 182300Z AUTO 09008KT 9999 FEW026 SCT060 26/21 Q1014 NOSIG
Conditions at: TFFF (LE LAMENTIN/MART, MQ) observed 2300 UTC 18 April 2019
Temperature: 26.0°C (79°F)
Dewpoint: 21.0°C (70°F) [RH = 74%]
Pressure (altimeter): 29.94 inches Hg (1014.0 mb)
Winds: from the E (90 degrees) at 9 MPH (8 knots; 4.1 m/s)
Visibility: 6 or more miles (10+ km)
Ceiling: at least 12,000 feet AGL
Clouds: few clouds at 2600 feet AGL
scattered clouds at 6000 feet AGL
Weather: no significant weather observed at this time

METAR text: TFFF 182230Z AUTO 09010KT 9999 FEW026 26/21 Q1014 NOSIG
Conditions at: TFFF (LE LAMENTIN/MART, MQ) observed 2230 UTC 18 April 2019
Temperature: 26.0°C (79°F)
Dewpoint: 21.0°C (70°F) [RH = 74%]
Pressure (altimeter): 29.94 inches Hg (1014.0 mb)
Winds: from the E (90 degrees) at 12 MPH (10 knots; 5.1 m/s)
Visibility: 6 or more miles (10+ km)
Ceiling: at least 12,000 feet AGL
Clouds: few clouds at 2600 feet AGL
Weather: no significant weather observed at this time

METAR text: TFFF 182200Z AUTO 11013KT 9999 FEW023 OVC062 27/21 Q1013 NOSIG
Conditions at: TFFF (LE LAMENTIN/MART, MQ) observed 2200 UTC 18 April 2019
Temperature: 27.0°C (81°F)
Dewpoint: 21.0°C (70°F) [RH = 70%]
Pressure (altimeter): 29.91 inches Hg (1013.0 mb)
Winds: from the ESE (110 degrees) at 15 MPH (13 knots; 6.7 m/s)
Visibility: 6 or more miles (10+ km)
Ceiling: 6200 feet AGL
Clouds: few clouds at 2300 feet AGL
overcast cloud deck at 6200 feet AGL
Weather: no significant weather observed at this time

METAR text: TFFF 182130Z AUTO 09011KT 9999 FEW028 BKN054 BKN064 27/22 Q1013 NOSIG
Conditions at: TFFF (LE LAMENTIN/MART, MQ) observed 2130 UTC 18 April 2019
Temperature: 27.0°C (81°F)
Dewpoint: 22.0°C (72°F) [RH = 74%]
Pressure (altimeter): 29.91 inches Hg (1013.0 mb)
Winds: from the E (90 degrees) at 13 MPH (11 knots; 5.7 m/s)
Visibility: 6 or more miles (10+ km)
Ceiling: 5400 feet AGL
Clouds: few clouds at 2800 feet AGL
broken clouds at 5400 feet AGL
broken clouds at 6400 feet AGL
Weather: no significant weather observed at this time

METAR text: TFFF 182100Z AUTO 10013KT 9999 FEW054 27/21 Q1013 NOSIG
Conditions at: TFFF (LE LAMENTIN/MART, MQ) observed 2100 UTC 18 April 2019
Temperature: 27.0°C (81°F)
Dewpoint: 21.0°C (70°F) [RH = 70%]
Pressure (altimeter): 29.91 inches Hg (1013.0 mb)
Winds: from the E (100 degrees) at 15 MPH (13 knots; 6.7 m/s)
Visibility: 6 or more miles (10+ km)
Ceiling: at least 12,000 feet AGL
Clouds: few clouds at 5400 feet AGL
Weather: no significant weather observed at this time

METAR text: TFFF 182030Z AUTO 10014KT 070V130 9999 SCT028 SCT038 BKN062 28/22 Q1013 NOSIG
Conditions at: TFFF (LE LAMENTIN/MART, MQ) observed 2030 UTC 18 April 2019
Temperature: 28.0°C (82°F)
Dewpoint: 22.0°C (72°F) [RH = 70%]
Pressure (altimeter): 29.91 inches Hg (1013.0 mb)
Winds: from the E (100 degrees) at 16 MPH (14 knots; 7.2 m/s)
Visibility: 6 or more miles (10+ km)
Ceiling: 6200 feet AGL
Clouds: scattered clouds at 2800 feet AGL
scattered clouds at 3800 feet AGL
broken clouds at 6200 feet AGL
Weather: no significant weather observed at this time

METAR text: TFFF 182000Z AUTO 09013KT 9999 SCT030 SCT058 BKN074 29/22 Q1013 TEMPO 11015G25KT SHRA SCT018TCU BKN025
Conditions at: TFFF (LE LAMENTIN/MART, MQ) observed 2000 UTC 18 April 2019
Temperature: 29.0°C (84°F)
Dewpoint: 22.0°C (72°F) [RH = 66%]
Pressure (altimeter): 29.91 inches Hg (1013.0 mb)
Winds: from the E (90 degrees) at 15 MPH (13 knots; 6.7 m/s)
Visibility: 6 or more miles (10+ km)
Ceiling: 7400 feet AGL
Clouds: scattered clouds at 3000 feet AGL
scattered clouds at 5800 feet AGL
broken clouds at 7400 feet AGL
Weather: no significant weather observed at this time

METAR text: TFFF 181930Z AUTO 12015KT 9999 SCT031 OVC072 29/21 Q1013 TEMPO 11015G25KT SHRA SCT018TCU BKN025
Conditions at: TFFF (LE LAMENTIN/MART, MQ) observed 1930 UTC 18 April 2019
Temperature: 29.0°C (84°F)
Dewpoint: 21.0°C (70°F) [RH = 62%]
Pressure (altimeter): 29.91 inches Hg (1013.0 mb)
Winds: from the ESE (120 degrees) at 17 MPH (15 knots; 7.7 m/s)
Visibility: 6 or more miles (10+ km)
Ceiling: 7200 feet AGL
Clouds: scattered clouds at 3100 feet AGL
overcast cloud deck at 7200 feet AGL
Weather: no significant weather observed at this time

METAR text: TFFF 181900Z AUTO 11014KT 070V140 9999 SCT031 BKN076 29/22 Q1013 TEMPO 11015G25KT SHRA SCT018TCU BKN025
Conditions at: TFFF (LE LAMENTIN/MART, MQ) observed 1900 UTC 18 April 2019
Temperature: 29.0°C (84°F)
Dewpoint: 22.0°C (72°F) [RH = 66%]
Pressure (altimeter): 29.91 inches Hg (1013.0 mb)
Winds: from the ESE (110 degrees) at 16 MPH (14 knots; 7.2 m/s)
Visibility: 6 or more miles (10+ km)
Ceiling: 7600 feet AGL
Clouds: scattered clouds at 3100 feet AGL
broken clouds at 7600 feet AGL
Weather: no significant weather observed at this time

METAR text: TFFF 181830Z AUTO 10014KT 060V120 9999 SCT031 SCT042 BKN078 29/21 Q1013 TEMPO 11015G25KT SHRA SCT018TCU BKN025
Conditions at: TFFF (LE LAMENTIN/MART, MQ) observed 1830 UTC 18 April 2019
Temperature: 29.0°C (84°F)
Dewpoint: 21.0°C (70°F) [RH = 62%]
Pressure (altimeter): 29.91 inches Hg (1013.0 mb)
Winds: from the E (100 degrees) at 16 MPH (14 knots; 7.2 m/s)
Visibility: 6 or more miles (10+ km)
Ceiling: 7800 feet AGL
Clouds: scattered clouds at 3100 feet AGL
scattered clouds at 4200 feet AGL
broken clouds at 7800 feet AGL
Weather: no significant weather observed at this time

METAR text: TFFF 181800Z AUTO 10013KT 070V140 9999 BKN031 BKN044 BKN064 29/22 Q1014 TEMPO 11015G25KT SHRA SCT018TCU BKN025
Conditions at: TFFF (LE LAMENTIN/MART, MQ) observed 1800 UTC 18 April 2019
Temperature: 29.0°C (84°F)
Dewpoint: 22.0°C (72°F) [RH = 66%]
Pressure (altimeter): 29.94 inches Hg (1014.0 mb)
Winds: from the E (100 degrees) at 15 MPH (13 knots; 6.7 m/s)
Visibility: 6 or more miles (10+ km)
Ceiling: 3100 feet AGL
Clouds: broken clouds at 3100 feet AGL
broken clouds at 4400 feet AGL
broken clouds at 6400 feet AGL
Weather: no significant weather observed at this time

METAR text: TFFF 181730Z AUTO 10014KT 070V130 9999 SCT033 SCT058 BKN070 29/21 Q1014 TEMPO 10015G25KT
Conditions at: TFFF (LE LAMENTIN/MART, MQ) observed 1730 UTC 18 April 2019
Temperature: 29.0°C (84°F)
Dewpoint: 21.0°C (70°F) [RH = 62%]
Pressure (altimeter): 29.94 inches Hg (1014.0 mb)
Winds: from the E (100 degrees) at 16 MPH (14 knots; 7.2 m/s)
Visibility: 6 or more miles (10+ km)
Ceiling: 7000 feet AGL
Clouds: scattered clouds at 3300 feet AGL
scattered clouds at 5800 feet AGL
broken clouds at 7000 feet AGL
Weather: no significant weather observed at this time

METAR text: TFFF 181700Z AUTO 11015KT 9999 SCT030 SCT036 BKN045 28/21 Q1015 TEMPO 10015G25KT
Conditions at: TFFF (LE LAMENTIN/MART, MQ) observed 1700 UTC 18 April 2019
Temperature: 28.0°C (82°F)
Dewpoint: 21.0°C (70°F) [RH = 66%]
Pressure (altimeter): 29.97 inches Hg (1015.0 mb)
Winds: from the ESE (110 degrees) at 17 MPH (15 knots; 7.7 m/s)
Visibility: 6 or more miles (10+ km)
Ceiling: 4500 feet AGL
Clouds: scattered clouds at 3000 feet AGL
scattered clouds at 3600 feet AGL
broken clouds at 4500 feet AGL
Weather: no significant weather observed at this time

METAR text: TFFF 181630Z AUTO 18007KT 120V230 9999 BKN028 BKN033 BKN042 28/21 Q1015 TEMPO 10015G25KT
Conditions at: TFFF (LE LAMENTIN/MART, MQ) observed 1630 UTC 18 April 2019
Temperature: 28.0°C (82°F)
Dewpoint: 21.0°C (70°F) [RH = 66%]
Pressure (altimeter): 29.97 inches Hg (1015.0 mb)
Winds: from the S (180 degrees) at 8 MPH (7 knots; 3.6 m/s)
Visibility: 6 or more miles (10+ km)
Ceiling: 2800 feet AGL
Clouds: broken clouds at 2800 feet AGL
broken clouds at 3300 feet AGL
broken clouds at 4200 feet AGL
Weather: no significant weather observed at this time

METAR text: TFFF 181600Z AUTO 11014KT 070V130 9999 FEW032/// BKN056/// BKN074/// ///TCU 29/22 Q1016 TEMPO 10015G25KT BECMG SCT025 SCT035
Conditions at: TFFF (LE LAMENTIN/MART, MQ) observed 1600 UTC 18 April 2019
Temperature: 29.0°C (84°F)
Dewpoint: 22.0°C (72°F) [RH = 66%]
Pressure (altimeter): 30.00 inches Hg (1016.0 mb)
Winds: from the ESE (110 degrees) at 16 MPH (14 knots; 7.2 m/s)
Visibility: 6 or more miles (10+ km)
Ceiling: 5600 feet AGL
Clouds: few clouds at 3200 feet AGL
broken clouds at 5600 feet AGL
broken clouds at 7400 feet AGL
Weather: no significant weather observed at this time

METAR text: TFFF 181530Z AUTO 09013KT 9999 FEW036 BKN049 OVC072 28/20 Q1016 TEMPO 10015G25KT
Conditions at: TFFF (LE LAMENTIN/MART, MQ) observed 1530 UTC 18 April 2019
Temperature: 28.0°C (82°F)
Dewpoint: 20.0°C (68°F) [RH = 62%]
Pressure (altimeter): 30.00 inches Hg (1016.0 mb)
Winds: from the E (90 degrees) at 15 MPH (13 knots; 6.7 m/s)
Visibility: 6 or more miles (10+ km)
Ceiling: 4900 feet AGL
Clouds: few clouds at 3600 feet AGL
broken clouds at 4900 feet AGL
overcast cloud deck at 7200 feet AGL
Weather: no significant weather observed at this time

METAR text: TFFF 181500Z AUTO 09009KT 060V120 9999 FEW048 SCT060 OVC074 29/21 Q1016 TEMPO 10015G25KT 4000 SHRA SCT016TCU BKN025
Conditions at: TFFF (LE LAMENTIN/MART, MQ) observed 1500 UTC 18 April 2019
Temperature: 29.0°C (84°F)
Dewpoint: 21.0°C (70°F) [RH = 62%]
Pressure (altimeter): 30.00 inches Hg (1016.0 mb)
Winds: from the E (90 degrees) at 10 MPH (9 knots; 4.6 m/s)
Visibility: 6 or more miles (10+ km)
Ceiling: 7400 feet AGL
Clouds: few clouds at 4800 feet AGL
scattered clouds at 6000 feet AGL
overcast cloud deck at 7400 feet AGL
Weather: no significant weather observed at this time

METAR text: TFFF 181430Z AUTO 08013KT 9999 SCT028 SCT040 BKN046 27/21 Q1016 TEMPO 10015G25KT 4000 SHRA SCT016TCU BKN025
Conditions at: TFFF (LE LAMENTIN/MART, MQ) observed 1430 UTC 18 April 2019
Temperature: 27.0°C (81°F)
Dewpoint: 21.0°C (70°F) [RH = 70%]
Pressure (altimeter): 30.00 inches Hg (1016.0 mb)
Winds: from the E (80 degrees) at 15 MPH (13 knots; 6.7 m/s)
Visibility: 6 or more miles (10+ km)
Ceiling: 4600 feet AGL
Clouds: scattered clouds at 2800 feet AGL
scattered clouds at 4000 feet AGL
broken clouds at 4600 feet AGL
Weather: no significant weather observed at this time

METAR text: TFFF 181400Z AUTO 11014KT 9999 FEW029 BKN070 BKN100 28/22 Q1016 TEMPO 10015G25KT 4000 SHRA SCT016TCU BKN025
Conditions at: TFFF (LE LAMENTIN/MART, MQ) observed 1400 UTC 18 April 2019
Temperature: 28.0°C (82°F)
Dewpoint: 22.0°C (72°F) [RH = 70%]
Pressure (altimeter): 30.00 inches Hg (1016.0 mb)
Winds: from the ESE (110 degrees) at 16 MPH (14 knots; 7.2 m/s)
Visibility: 6 or more miles (10+ km)
Ceiling: 7000 feet AGL
Clouds: few clouds at 2900 feet AGL
broken clouds at 7000 feet AGL
broken clouds at 10000 feet AGL
Weather: no significant weather observed at this time

METAR text: TFFF 181330Z AUTO 12009KT 9999 FEW054 BKN072 27/21 Q1016 TEMPO 10015G25KT 4000 SHRA SCT016TCU BKN025
Conditions at: TFFF (LE LAMENTIN/MART, MQ) observed 1330 UTC 18 April 2019
Temperature: 27.0°C (81°F)
Dewpoint: 21.0°C (70°F) [RH = 70%]
Pressure (altimeter): 30.00 inches Hg (1016.0 mb)
Winds: from the ESE (120 degrees) at 10 MPH (9 knots; 4.6 m/s)
Visibility: 6 or more miles (10+ km)
Ceiling: 7200 feet AGL
Clouds: few clouds at 5400 feet AGL
broken clouds at 7200 feet AGL
Weather: no significant weather observed at this time

METAR text: TFFF 181300Z AUTO 13012KT 9999 SCT020 BKN029 BKN047 27/22 Q1016 TEMPO 10015G25KT 4000 SHRA SCT016TCU BKN025
Conditions at: TFFF (LE LAMENTIN/MART, MQ) observed 1300 UTC 18 April 2019
Temperature: 27.0°C (81°F)
Dewpoint: 22.0°C (72°F) [RH = 74%]
Pressure (altimeter): 30.00 inches Hg (1016.0 mb)
Winds: from the SE (130 degrees) at 14 MPH (12 knots; 6.2 m/s)
Visibility: 6 or more miles (10+ km)
Ceiling: 2900 feet AGL
Clouds: scattered clouds at 2000 feet AGL
broken clouds at 2900 feet AGL
broken clouds at 4700 feet AGL
Weather: no significant weather observed at this time

Forecast for: TFFF (LE LAMENTIN/MART, MQ)
Text: TAF TFFF 192300Z 2000/2024 09010KT 9999 SCT028
Forecast period: 0000 UTC 20 April 2019 to 0000 UTC 21 April 2019
Forecast type: FROM: standard forecast or significant change
Winds: from the E (90 degrees) at 12 MPH (10 knots; 5.1 m/s)
Visibility: 6 or more miles 10+ km)
Ceiling: at least 12,000 feet AGL
Clouds: scattered clouds at 2800 feet AGL
Weather: no significant weather forecast for this period
Text: TEMPO 2013/2021 12017G27KT
Forecast period: 1300 to 2100 UTC 20 April 2019
Forecast type: TEMPORARY: The following changes expected for less than half the time period
Winds: from the ESE (120 degrees) at 20 MPH (17 knots; 8.7 m/s)
gusting to 31 MPH (27 knots; 13.9 m/s)
Visibility: missing
Ceiling: unknown
Clouds: missing
Weather: no significant weather forecast for this period
Text: PROB30
Forecast period: 1400 UTC 20 April 2019 to 0000 UTC 21 April 2019
Forecast type: TEMPORARY: The following changes expected for less than half the time period
Visibility: 2.49 miles (4.01 km)
Ceiling: at least 12,000 feet AGL
Clouds: scattered clouds at 1800 feet AGL
scattered clouds at 2500 feet AGL
Weather: SHRA  (rain showers)